sensor_id;sensor_type;location;lat;lon;timestamp;P1;durP1;ratioP1;P2;durP2;ratioP2
70549;SDS011;58101;48.658;2.328;2022-10-22T00:00:23;11.15;;;1.80;;
70549;SDS011;58101;48.658;2.328;2022-10-22T00:02:48;8.88;;;1.67;;
70549;SDS011;58101;48.658;2.328;2022-10-22T00:05:14;11.45;;;1.77;;
70549;SDS011;58101;48.658;2.328;2022-10-22T00:07:40;5.80;;;1.40;;
70549;SDS011;58101;48.658;2.328;2022-10-22T00:10:06;6.35;;;1.50;;
70549;SDS011;58101;48.658;2.328;2022-10-22T00:12:32;6.93;;;1.38;;
70549;SDS011;58101;48.658;2.328;2022-10-22T00:14:57;7.22;;;1.60;;
70549;SDS011;58101;48.658;2.328;2022-10-22T00:17:23;7.72;;;1.50;;
70549;SDS011;58101;48.658;2.328;2022-10-22T00:19:49;7.68;;;1.63;;
70549;SDS011;58101;48.658;2.328;2022-10-22T00:22:14;6.95;;;1.50;;
70549;SDS011;58101;48.658;2.328;2022-10-22T00:24:40;10.82;;;1.67;;
70549;SDS011;58101;48.658;2.328;2022-10-22T00:27:07;12.05;;;2.33;;
70549;SDS011;58101;48.658;2.328;2022-10-22T00:29:34;7.28;;;1.70;;
70549;SDS011;58101;48.658;2.328;2022-10-22T00:32:00;9.80;;;1.70;;
70549;SDS011;58101;48.658;2.328;2022-10-22T00:34:25;9.50;;;1.45;;
70549;SDS011;58101;48.658;2.328;2022-10-22T00:36:51;8.02;;;1.90;;
70549;SDS011;58101;48.658;2.328;2022-10-22T00:39:18;7.75;;;1.60;;
70549;SDS011;58101;48.658;2.328;2022-10-22T00:41:45;9.27;;;1.55;;
70549;SDS011;58101;48.658;2.328;2022-10-22T00:47:15;9.63;;;1.52;;
70549;SDS011;58101;48.658;2.328;2022-10-22T00:49:42;10.52;;;1.60;;
70549;SDS011;58101;48.658;2.328;2022-10-22T00:54:35;5.20;;;1.30;;
70549;SDS011;58101;48.658;2.328;2022-10-22T00:57:02;10.25;;;1.40;;
70549;SDS011;58101;48.658;2.328;2022-10-22T00:59:28;10.73;;;1.60;;
70549;SDS011;58101;48.658;2.328;2022-10-22T01:01:54;9.30;;;1.50;;
70549;SDS011;58101;48.658;2.328;2022-10-22T01:04:20;7.60;;;1.88;;
70549;SDS011;58101;48.658;2.328;2022-10-22T01:06:45;8.52;;;2.35;;
70549;SDS011;58101;48.658;2.328;2022-10-22T01:09:16;8.02;;;1.40;;
70549;SDS011;58101;48.658;2.328;2022-10-22T01:15:02;9.00;;;1.50;;
70549;SDS011;58101;48.658;2.328;2022-10-22T01:17:52;9.02;;;1.60;;
70549;SDS011;58101;48.658;2.328;2022-10-22T01:26:41;12.40;;;2.08;;
70549;SDS011;58101;48.658;2.328;2022-10-22T01:29:19;8.88;;;1.70;;
70549;SDS011;58101;48.658;2.328;2022-10-22T01:31:54;9.82;;;1.73;;
70549;SDS011;58101;48.658;2.328;2022-10-22T01:34:23;8.75;;;1.48;;
70549;SDS011;58101;48.658;2.328;2022-10-22T01:36:51;7.50;;;1.50;;
70549;SDS011;58101;48.658;2.328;2022-10-22T01:39:18;7.38;;;1.60;;
70549;SDS011;58101;48.658;2.328;2022-10-22T01:41:45;11.43;;;1.40;;
70549;SDS011;58101;48.658;2.328;2022-10-22T01:44:27;7.75;;;1.50;;
70549;SDS011;58101;48.658;2.328;2022-10-22T01:53:26;10.52;;;1.73;;
70549;SDS011;58101;48.658;2.328;2022-10-22T02:04:50;11.40;;;1.80;;
70549;SDS011;58101;48.658;2.328;2022-10-22T02:07:27;7.93;;;1.50;;
70549;SDS011;58101;48.658;2.328;2022-10-22T02:09:56;10.05;;;1.52;;
70549;SDS011;58101;48.658;2.328;2022-10-22T02:12:24;7.60;;;1.33;;
70549;SDS011;58101;48.658;2.328;2022-10-22T02:14:53;6.72;;;1.42;;
70549;SDS011;58101;48.658;2.328;2022-10-22T02:17:21;10.48;;;1.67;;
70549;SDS011;58101;48.658;2.328;2022-10-22T02:19:56;6.32;;;1.40;;
70549;SDS011;58101;48.658;2.328;2022-10-22T02:22:25;8.23;;;1.55;;
70549;SDS011;58101;48.658;2.328;2022-10-22T02:27:28;8.07;;;1.50;;
70549;SDS011;58101;48.658;2.328;2022-10-22T02:30:01;11.30;;;1.50;;
70549;SDS011;58101;48.658;2.328;2022-10-22T02:32:39;8.25;;;1.83;;
70549;SDS011;58101;48.658;2.328;2022-10-22T02:35:14;11.15;;;1.73;;
70549;SDS011;58101;48.658;2.328;2022-10-22T02:37:48;8.13;;;1.70;;
70549;SDS011;58101;48.658;2.328;2022-10-22T02:40:15;11.73;;;1.70;;
70549;SDS011;58101;48.658;2.328;2022-10-22T02:42:41;9.63;;;1.52;;
70549;SDS011;58101;48.658;2.328;2022-10-22T02:45:10;7.78;;;1.50;;
70549;SDS011;58101;48.658;2.328;2022-10-22T02:47:35;8.90;;;1.55;;
70549;SDS011;58101;48.658;2.328;2022-10-22T02:50:01;8.52;;;1.60;;
70549;SDS011;58101;48.658;2.328;2022-10-22T02:52:27;8.65;;;1.33;;
70549;SDS011;58101;48.658;2.328;2022-10-22T02:54:52;7.50;;;1.50;;
70549;SDS011;58101;48.658;2.328;2022-10-22T02:57:18;12.35;;;1.70;;
70549;SDS011;58101;48.658;2.328;2022-10-22T02:59:43;6.90;;;1.33;;
70549;SDS011;58101;48.658;2.328;2022-10-22T03:02:09;7.97;;;1.60;;
70549;SDS011;58101;48.658;2.328;2022-10-22T03:04:35;7.25;;;1.48;;
70549;SDS011;58101;48.658;2.328;2022-10-22T03:07:00;8.95;;;1.58;;
70549;SDS011;58101;48.658;2.328;2022-10-22T03:09:26;10.27;;;1.70;;
70549;SDS011;58101;48.658;2.328;2022-10-22T03:11:51;13.30;;;1.70;;
70549;SDS011;58101;48.658;2.328;2022-10-22T03:14:17;9.88;;;1.35;;
70549;SDS011;58101;48.658;2.328;2022-10-22T03:16:43;11.82;;;1.60;;
70549;SDS011;58101;48.658;2.328;2022-10-22T03:19:08;10.70;;;1.80;;
70549;SDS011;58101;48.658;2.328;2022-10-22T03:21:36;10.23;;;1.65;;
70549;SDS011;58101;48.658;2.328;2022-10-22T03:24:13;8.55;;;1.63;;
70549;SDS011;58101;48.658;2.328;2022-10-22T03:26:43;8.27;;;1.60;;
70549;SDS011;58101;48.658;2.328;2022-10-22T03:29:10;8.38;;;1.63;;
70549;SDS011;58101;48.658;2.328;2022-10-22T03:31:38;9.95;;;1.50;;
70549;SDS011;58101;48.658;2.328;2022-10-22T03:34:03;8.07;;;1.40;;
70549;SDS011;58101;48.658;2.328;2022-10-22T03:36:30;13.18;;;1.90;;
70549;SDS011;58101;48.658;2.328;2022-10-22T03:38:56;9.75;;;1.60;;
70549;SDS011;58101;48.658;2.328;2022-10-22T03:41:23;12.57;;;1.85;;
70549;SDS011;58101;48.658;2.328;2022-10-22T03:43:49;9.23;;;1.70;;
70549;SDS011;58101;48.658;2.328;2022-10-22T03:46:17;8.95;;;1.40;;
70549;SDS011;58101;48.658;2.328;2022-10-22T03:48:43;10.15;;;2.05;;
70549;SDS011;58101;48.658;2.328;2022-10-22T03:51:08;7.85;;;1.30;;
70549;SDS011;58101;48.658;2.328;2022-10-22T03:53:34;7.25;;;1.38;;
70549;SDS011;58101;48.658;2.328;2022-10-22T03:56:00;9.73;;;1.90;;
70549;SDS011;58101;48.658;2.328;2022-10-22T03:58:26;8.30;;;1.70;;
70549;SDS011;58101;48.658;2.328;2022-10-22T04:00:52;10.35;;;1.70;;
70549;SDS011;58101;48.658;2.328;2022-10-22T04:03:18;9.60;;;1.90;;
70549;SDS011;58101;48.658;2.328;2022-10-22T04:05:43;8.60;;;1.50;;
70549;SDS011;58101;48.658;2.328;2022-10-22T04:08:09;9.65;;;1.58;;
70549;SDS011;58101;48.658;2.328;2022-10-22T04:10:34;14.15;;;1.50;;
70549;SDS011;58101;48.658;2.328;2022-10-22T04:13:00;10.23;;;1.80;;
70549;SDS011;58101;48.658;2.328;2022-10-22T04:15:26;11.77;;;1.80;;
70549;SDS011;58101;48.658;2.328;2022-10-22T04:17:53;9.65;;;1.60;;
70549;SDS011;58101;48.658;2.328;2022-10-22T04:20:19;9.15;;;1.98;;
70549;SDS011;58101;48.658;2.328;2022-10-22T04:22:45;10.35;;;1.80;;
70549;SDS011;58101;48.658;2.328;2022-10-22T04:25:10;8.38;;;1.50;;
70549;SDS011;58101;48.658;2.328;2022-10-22T04:27:36;7.40;;;1.50;;
70549;SDS011;58101;48.658;2.328;2022-10-22T04:30:02;8.13;;;2.10;;
70549;SDS011;58101;48.658;2.328;2022-10-22T04:32:29;9.88;;;1.40;;
70549;SDS011;58101;48.658;2.328;2022-10-22T04:34:54;8.93;;;1.60;;
70549;SDS011;58101;48.658;2.328;2022-10-22T04:37:20;10.18;;;1.52;;
70549;SDS011;58101;48.658;2.328;2022-10-22T04:39:46;10.32;;;1.60;;
70549;SDS011;58101;48.658;2.328;2022-10-22T04:42:11;7.03;;;1.50;;
70549;SDS011;58101;48.658;2.328;2022-10-22T04:44:37;9.82;;;1.73;;
70549;SDS011;58101;48.658;2.328;2022-10-22T04:47:02;9.25;;;1.70;;
70549;SDS011;58101;48.658;2.328;2022-10-22T04:49:28;9.57;;;1.60;;
70549;SDS011;58101;48.658;2.328;2022-10-22T04:51:54;8.40;;;1.50;;
70549;SDS011;58101;48.658;2.328;2022-10-22T04:54:20;10.90;;;1.95;;
70549;SDS011;58101;48.658;2.328;2022-10-22T04:56:45;8.75;;;1.67;;
70549;SDS011;58101;48.658;2.328;2022-10-22T04:59:11;11.88;;;1.95;;
70549;SDS011;58101;48.658;2.328;2022-10-22T05:01:38;9.20;;;1.70;;
70549;SDS011;58101;48.658;2.328;2022-10-22T05:04:05;9.80;;;1.75;;
70549;SDS011;58101;48.658;2.328;2022-10-22T05:06:32;8.27;;;1.65;;
70549;SDS011;58101;48.658;2.328;2022-10-22T05:09:01;12.38;;;2.05;;
70549;SDS011;58101;48.658;2.328;2022-10-22T05:11:32;7.93;;;1.70;;
70549;SDS011;58101;48.658;2.328;2022-10-22T05:14:03;8.77;;;2.00;;
70549;SDS011;58101;48.658;2.328;2022-10-22T05:16:30;8.35;;;1.88;;
70549;SDS011;58101;48.658;2.328;2022-10-22T05:18:57;14.50;;;2.00;;
70549;SDS011;58101;48.658;2.328;2022-10-22T05:21:24;10.73;;;1.80;;
70549;SDS011;58101;48.658;2.328;2022-10-22T05:23:50;6.75;;;1.40;;
70549;SDS011;58101;48.658;2.328;2022-10-22T05:26:19;7.57;;;1.50;;
70549;SDS011;58101;48.658;2.328;2022-10-22T05:28:46;7.47;;;1.73;;
70549;SDS011;58101;48.658;2.328;2022-10-22T05:31:13;6.40;;;1.63;;
70549;SDS011;58101;48.658;2.328;2022-10-22T05:33:39;12.27;;;1.85;;
70549;SDS011;58101;48.658;2.328;2022-10-22T05:36:06;7.93;;;1.55;;
70549;SDS011;58101;48.658;2.328;2022-10-22T05:38:33;7.70;;;1.60;;
70549;SDS011;58101;48.658;2.328;2022-10-22T05:43:29;6.65;;;1.70;;
70549;SDS011;58101;48.658;2.328;2022-10-22T05:45:56;7.95;;;1.58;;
70549;SDS011;58101;48.658;2.328;2022-10-22T05:48:29;8.27;;;1.77;;
70549;SDS011;58101;48.658;2.328;2022-10-22T05:50:55;10.75;;;2.15;;
70549;SDS011;58101;48.658;2.328;2022-10-22T05:53:21;10.27;;;2.03;;
70549;SDS011;58101;48.658;2.328;2022-10-22T05:55:46;8.90;;;1.75;;
70549;SDS011;58101;48.658;2.328;2022-10-22T05:58:12;8.68;;;1.73;;
70549;SDS011;58101;48.658;2.328;2022-10-22T06:00:39;9.55;;;1.70;;
70549;SDS011;58101;48.658;2.328;2022-10-22T06:03:05;8.82;;;1.88;;
70549;SDS011;58101;48.658;2.328;2022-10-22T06:05:33;9.70;;;1.70;;
70549;SDS011;58101;48.658;2.328;2022-10-22T06:08:00;10.82;;;1.80;;
70549;SDS011;58101;48.658;2.328;2022-10-22T06:10:26;11.43;;;1.92;;
70549;SDS011;58101;48.658;2.328;2022-10-22T06:12:52;9.10;;;1.88;;
70549;SDS011;58101;48.658;2.328;2022-10-22T06:15:18;8.48;;;1.60;;
70549;SDS011;58101;48.658;2.328;2022-10-22T06:17:44;8.43;;;1.70;;
70549;SDS011;58101;48.658;2.328;2022-10-22T06:20:11;8.40;;;1.73;;
70549;SDS011;58101;48.658;2.328;2022-10-22T06:22:38;12.35;;;2.00;;
70549;SDS011;58101;48.658;2.328;2022-10-22T06:25:04;9.50;;;2.38;;
70549;SDS011;58101;48.658;2.328;2022-10-22T06:27:32;11.32;;;2.03;;
70549;SDS011;58101;48.658;2.328;2022-10-22T06:29:58;8.13;;;1.92;;
70549;SDS011;58101;48.658;2.328;2022-10-22T06:32:24;9.18;;;2.00;;
70549;SDS011;58101;48.658;2.328;2022-10-22T06:34:50;16.05;;;2.65;;
70549;SDS011;58101;48.658;2.328;2022-10-22T06:37:16;7.00;;;1.60;;
70549;SDS011;58101;48.658;2.328;2022-10-22T06:39:41;12.75;;;1.85;;
70549;SDS011;58101;48.658;2.328;2022-10-22T06:42:07;6.95;;;1.73;;
70549;SDS011;58101;48.658;2.328;2022-10-22T06:44:33;10.70;;;2.10;;
70549;SDS011;58101;48.658;2.328;2022-10-22T06:46:59;7.40;;;1.73;;
70549;SDS011;58101;48.658;2.328;2022-10-22T06:49:25;9.50;;;1.90;;
70549;SDS011;58101;48.658;2.328;2022-10-22T06:51:51;13.73;;;2.20;;
70549;SDS011;58101;48.658;2.328;2022-10-22T06:54:17;8.98;;;1.75;;
70549;SDS011;58101;48.658;2.328;2022-10-22T06:56:43;11.82;;;2.38;;
70549;SDS011;58101;48.658;2.328;2022-10-22T06:59:09;12.38;;;2.05;;
70549;SDS011;58101;48.658;2.328;2022-10-22T07:01:35;9.77;;;2.03;;
70549;SDS011;58101;48.658;2.328;2022-10-22T07:06:30;9.13;;;2.05;;
70549;SDS011;58101;48.658;2.328;2022-10-22T07:08:56;9.90;;;1.83;;
70549;SDS011;58101;48.658;2.328;2022-10-22T07:11:24;10.60;;;2.20;;
70549;SDS011;58101;48.658;2.328;2022-10-22T07:13:53;12.80;;;3.00;;
70549;SDS011;58101;48.658;2.328;2022-10-22T07:16:19;9.65;;;1.83;;
70549;SDS011;58101;48.658;2.328;2022-10-22T07:18:45;9.98;;;1.83;;
70549;SDS011;58101;48.658;2.328;2022-10-22T07:21:11;11.55;;;2.00;;
70549;SDS011;58101;48.658;2.328;2022-10-22T07:23:38;8.98;;;1.85;;
70549;SDS011;58101;48.658;2.328;2022-10-22T07:26:05;8.95;;;2.00;;
70549;SDS011;58101;48.658;2.328;2022-10-22T07:28:31;9.25;;;2.00;;
70549;SDS011;58101;48.658;2.328;2022-10-22T07:30:58;8.80;;;2.00;;
70549;SDS011;58101;48.658;2.328;2022-10-22T07:33:24;9.88;;;2.20;;
70549;SDS011;58101;48.658;2.328;2022-10-22T07:35:55;18.13;;;2.92;;
70549;SDS011;58101;48.658;2.328;2022-10-22T07:38:25;7.88;;;2.00;;
70549;SDS011;58101;48.658;2.328;2022-10-22T07:40:51;12.70;;;2.50;;
70549;SDS011;58101;48.658;2.328;2022-10-22T07:43:17;9.05;;;2.10;;
70549;SDS011;58101;48.658;2.328;2022-10-22T07:45:42;12.80;;;2.00;;
70549;SDS011;58101;48.658;2.328;2022-10-22T07:48:09;7.68;;;1.90;;
70549;SDS011;58101;48.658;2.328;2022-10-22T07:50:34;10.93;;;2.92;;
70549;SDS011;58101;48.658;2.328;2022-10-22T07:53:00;11.15;;;2.50;;
70549;SDS011;58101;48.658;2.328;2022-10-22T07:55:25;9.65;;;2.50;;
70549;SDS011;58101;48.658;2.328;2022-10-22T07:57:51;9.65;;;2.97;;
70549;SDS011;58101;48.658;2.328;2022-10-22T08:00:17;9.10;;;2.25;;
70549;SDS011;58101;48.658;2.328;2022-10-22T08:02:43;12.73;;;2.08;;
70549;SDS011;58101;48.658;2.328;2022-10-22T08:05:08;9.63;;;1.80;;
70549;SDS011;58101;48.658;2.328;2022-10-22T08:07:34;12.98;;;1.77;;
70549;SDS011;58101;48.658;2.328;2022-10-22T08:10:00;13.05;;;1.80;;
70549;SDS011;58101;48.658;2.328;2022-10-22T08:12:25;9.57;;;2.00;;
70549;SDS011;58101;48.658;2.328;2022-10-22T08:14:51;7.30;;;1.70;;
70549;SDS011;58101;48.658;2.328;2022-10-22T08:17:17;8.27;;;1.63;;
70549;SDS011;58101;48.658;2.328;2022-10-22T08:19:42;9.55;;;1.80;;
70549;SDS011;58101;48.658;2.328;2022-10-22T08:22:08;13.10;;;1.77;;
70549;SDS011;58101;48.658;2.328;2022-10-22T08:24:34;8.68;;;1.75;;
70549;SDS011;58101;48.658;2.328;2022-10-22T08:26:59;9.43;;;1.90;;
70549;SDS011;58101;48.658;2.328;2022-10-22T08:31:51;7.47;;;1.55;;
70549;SDS011;58101;48.658;2.328;2022-10-22T08:34:17;12.77;;;1.70;;
70549;SDS011;58101;48.658;2.328;2022-10-22T08:36:44;7.30;;;1.80;;
70549;SDS011;58101;48.658;2.328;2022-10-22T08:39:10;11.18;;;2.10;;
70549;SDS011;58101;48.658;2.328;2022-10-22T08:41:41;10.48;;;2.10;;
70549;SDS011;58101;48.658;2.328;2022-10-22T08:49:39;7.55;;;1.60;;
70549;SDS011;58101;48.658;2.328;2022-10-22T08:52:08;6.35;;;1.42;;
70549;SDS011;58101;48.658;2.328;2022-10-22T09:00:20;7.43;;;1.63;;
70549;SDS011;58101;48.658;2.328;2022-10-22T09:08:04;7.78;;;1.70;;
70549;SDS011;58101;48.658;2.328;2022-10-22T09:13:04;7.28;;;1.60;;
70549;SDS011;58101;48.658;2.328;2022-10-22T09:15:29;8.63;;;1.60;;
70549;SDS011;58101;48.658;2.328;2022-10-22T09:23:17;10.27;;;1.77;;
70549;SDS011;58101;48.658;2.328;2022-10-22T09:25:51;6.63;;;1.63;;
70549;SDS011;58101;48.658;2.328;2022-10-22T09:28:17;7.35;;;1.50;;
70549;SDS011;58101;48.658;2.328;2022-10-22T09:30:43;8.75;;;1.75;;
70549;SDS011;58101;48.658;2.328;2022-10-22T09:33:11;9.90;;;1.52;;
70549;SDS011;58101;48.658;2.328;2022-10-22T09:36:22;9.32;;;1.88;;
70549;SDS011;58101;48.658;2.328;2022-10-22T09:38:32;8.35;;;1.50;;
70549;SDS011;58101;48.658;2.328;2022-10-22T09:41:03;7.93;;;1.60;;
70549;SDS011;58101;48.658;2.328;2022-10-22T09:43:29;8.77;;;1.60;;
70549;SDS011;58101;48.658;2.328;2022-10-22T09:45:56;8.27;;;1.55;;
70549;SDS011;58101;48.658;2.328;2022-10-22T09:48:28;8.43;;;1.85;;
70549;SDS011;58101;48.658;2.328;2022-10-22T09:53:54;6.60;;;1.42;;
70549;SDS011;58101;48.658;2.328;2022-10-22T09:56:25;9.55;;;1.85;;
70549;SDS011;58101;48.658;2.328;2022-10-22T09:58:51;9.40;;;2.10;;
70549;SDS011;58101;48.658;2.328;2022-10-22T10:01:30;8.18;;;1.73;;
70549;SDS011;58101;48.658;2.328;2022-10-22T10:04:06;7.72;;;1.50;;
70549;SDS011;58101;48.658;2.328;2022-10-22T10:06:34;6.72;;;1.50;;
70549;SDS011;58101;48.658;2.328;2022-10-22T10:09:05;7.07;;;1.80;;
70549;SDS011;58101;48.658;2.328;2022-10-22T10:14:42;8.88;;;1.70;;
70549;SDS011;58101;48.658;2.328;2022-10-22T10:20:01;11.23;;;1.75;;
70549;SDS011;58101;48.658;2.328;2022-10-22T10:25:23;8.05;;;1.48;;
70549;SDS011;58101;48.658;2.328;2022-10-22T10:30:53;8.82;;;1.75;;
70549;SDS011;58101;48.658;2.328;2022-10-22T10:39:02;8.18;;;1.50;;
70549;SDS011;58101;48.658;2.328;2022-10-22T10:41:43;6.28;;;1.42;;
70549;SDS011;58101;48.658;2.328;2022-10-22T10:49:52;8.25;;;1.48;;
70549;SDS011;58101;48.658;2.328;2022-10-22T10:55:21;8.52;;;1.58;;
70549;SDS011;58101;48.658;2.328;2022-10-22T11:01:10;7.97;;;1.60;;
70549;SDS011;58101;48.658;2.328;2022-10-22T11:06:29;6.72;;;1.48;;
70549;SDS011;58101;48.658;2.328;2022-10-22T11:09:02;8.13;;;1.52;;
70549;SDS011;58101;48.658;2.328;2022-10-22T11:11:35;6.97;;;1.42;;
70549;SDS011;58101;48.658;2.328;2022-10-22T11:14:23;7.88;;;1.60;;
70549;SDS011;58101;48.658;2.328;2022-10-22T11:17:20;8.88;;;1.60;;
70549;SDS011;58101;48.658;2.328;2022-10-22T11:22:45;10.13;;;1.50;;
70549;SDS011;58101;48.658;2.328;2022-10-22T11:25:27;8.32;;;1.50;;
70549;SDS011;58101;48.658;2.328;2022-10-22T11:28:17;6.28;;;1.23;;
70549;SDS011;58101;48.658;2.328;2022-10-22T11:30:45;7.95;;;1.40;;
70549;SDS011;58101;48.658;2.328;2022-10-22T11:33:18;10.15;;;1.40;;
70549;SDS011;58101;48.658;2.328;2022-10-22T11:35:47;8.55;;;1.50;;
70549;SDS011;58101;48.658;2.328;2022-10-22T11:38:15;6.90;;;1.52;;
70549;SDS011;58101;48.658;2.328;2022-10-22T11:43:56;9.48;;;1.50;;
70549;SDS011;58101;48.658;2.328;2022-10-22T11:51:41;5.95;;;1.20;;
70549;SDS011;58101;48.658;2.328;2022-10-22T11:59:40;6.85;;;1.40;;
70549;SDS011;58101;48.658;2.328;2022-10-22T12:02:22;7.10;;;1.50;;
70549;SDS011;58101;48.658;2.328;2022-10-22T12:04:48;6.03;;;1.40;;
70549;SDS011;58101;48.658;2.328;2022-10-22T12:10:21;6.10;;;1.10;;
70549;SDS011;58101;48.658;2.328;2022-10-22T12:12:57;6.22;;;1.20;;
70549;SDS011;58101;48.658;2.328;2022-10-22T12:15:45;6.70;;;1.17;;
70549;SDS011;58101;48.658;2.328;2022-10-22T12:18:13;5.90;;;1.48;;
70549;SDS011;58101;48.658;2.328;2022-10-22T12:20:40;6.15;;;0.90;;
70549;SDS011;58101;48.658;2.328;2022-10-22T12:23:07;7.28;;;1.38;;
70549;SDS011;58101;48.658;2.328;2022-10-22T12:25:35;7.20;;;1.20;;
70549;SDS011;58101;48.658;2.328;2022-10-22T12:28:02;5.65;;;1.25;;
70549;SDS011;58101;48.658;2.328;2022-10-22T12:30:29;7.35;;;1.30;;
70549;SDS011;58101;48.658;2.328;2022-10-22T12:32:59;7.05;;;1.20;;
70549;SDS011;58101;48.658;2.328;2022-10-22T12:35:27;7.15;;;1.10;;
70549;SDS011;58101;48.658;2.328;2022-10-22T12:38:13;6.63;;;1.45;;
70549;SDS011;58101;48.658;2.328;2022-10-22T12:40:40;7.80;;;1.50;;
70549;SDS011;58101;48.658;2.328;2022-10-22T12:43:09;5.90;;;1.10;;
70549;SDS011;58101;48.658;2.328;2022-10-22T12:45:37;8.23;;;1.20;;
70549;SDS011;58101;48.658;2.328;2022-10-22T12:48:04;9.50;;;1.17;;
70549;SDS011;58101;48.658;2.328;2022-10-22T12:50:36;7.35;;;1.45;;
70549;SDS011;58101;48.658;2.328;2022-10-22T12:53:19;8.45;;;1.20;;
70549;SDS011;58101;48.658;2.328;2022-10-22T12:56:14;7.60;;;1.25;;
70549;SDS011;58101;48.658;2.328;2022-10-22T12:58:47;6.75;;;1.20;;
70549;SDS011;58101;48.658;2.328;2022-10-22T13:01:16;7.05;;;1.30;;
70549;SDS011;58101;48.658;2.328;2022-10-22T13:03:44;6.35;;;1.35;;
70549;SDS011;58101;48.658;2.328;2022-10-22T13:11:29;6.20;;;1.10;;
70549;SDS011;58101;48.658;2.328;2022-10-22T13:14:03;8.00;;;1.10;;
70549;SDS011;58101;48.658;2.328;2022-10-22T13:16:30;6.05;;;1.13;;
70549;SDS011;58101;48.658;2.328;2022-10-22T13:18:57;9.07;;;1.33;;
70549;SDS011;58101;48.658;2.328;2022-10-22T13:24:19;9.73;;;1.95;;
70549;SDS011;58101;48.658;2.328;2022-10-22T13:26:47;6.60;;;1.15;;
70549;SDS011;58101;48.658;2.328;2022-10-22T13:29:15;9.63;;;1.10;;
70549;SDS011;58101;48.658;2.328;2022-10-22T13:31:48;6.85;;;1.10;;
70549;SDS011;58101;48.658;2.328;2022-10-22T13:34:16;5.80;;;1.02;;
70549;SDS011;58101;48.658;2.328;2022-10-22T13:36:47;7.00;;;1.23;;
70549;SDS011;58101;48.658;2.328;2022-10-22T13:39:21;5.20;;;1.00;;
70549;SDS011;58101;48.658;2.328;2022-10-22T13:41:48;5.38;;;0.90;;
70549;SDS011;58101;48.658;2.328;2022-10-22T13:44:14;7.68;;;1.20;;
70549;SDS011;58101;48.658;2.328;2022-10-22T13:46:44;4.65;;;1.00;;
70549;SDS011;58101;48.658;2.328;2022-10-22T13:49:14;7.38;;;1.10;;
70549;SDS011;58101;48.658;2.328;2022-10-22T13:51:42;5.90;;;1.20;;
70549;SDS011;58101;48.658;2.328;2022-10-22T13:54:18;8.40;;;1.10;;
70549;SDS011;58101;48.658;2.328;2022-10-22T13:56:46;6.60;;;0.98;;
70549;SDS011;58101;48.658;2.328;2022-10-22T13:59:12;8.18;;;1.20;;
70549;SDS011;58101;48.658;2.328;2022-10-22T14:01:38;8.48;;;1.55;;
70549;SDS011;58101;48.658;2.328;2022-10-22T14:04:04;6.22;;;1.40;;
70549;SDS011;58101;48.658;2.328;2022-10-22T14:06:32;8.23;;;1.50;;
70549;SDS011;58101;48.658;2.328;2022-10-22T14:08:59;9.57;;;1.70;;
70549;SDS011;58101;48.658;2.328;2022-10-22T14:11:29;7.22;;;1.52;;
70549;SDS011;58101;48.658;2.328;2022-10-22T14:13:56;6.53;;;1.27;;
70549;SDS011;58101;48.658;2.328;2022-10-22T14:16:23;8.38;;;1.50;;
70549;SDS011;58101;48.658;2.328;2022-10-22T14:18:50;7.03;;;1.30;;
70549;SDS011;58101;48.658;2.328;2022-10-22T14:21:17;6.45;;;1.10;;
70549;SDS011;58101;48.658;2.328;2022-10-22T14:23:44;5.50;;;1.00;;
70549;SDS011;58101;48.658;2.328;2022-10-22T14:26:19;7.05;;;1.10;;
70549;SDS011;58101;48.658;2.328;2022-10-22T14:28:47;5.32;;;1.13;;
70549;SDS011;58101;48.658;2.328;2022-10-22T14:31:13;6.05;;;1.20;;
70549;SDS011;58101;48.658;2.328;2022-10-22T14:33:39;5.57;;;1.10;;
70549;SDS011;58101;48.658;2.328;2022-10-22T14:36:05;5.82;;;1.20;;
70549;SDS011;58101;48.658;2.328;2022-10-22T14:38:31;7.47;;;1.38;;
70549;SDS011;58101;48.658;2.328;2022-10-22T14:40:58;5.88;;;1.30;;
70549;SDS011;58101;48.658;2.328;2022-10-22T14:43:25;6.93;;;1.20;;
70549;SDS011;58101;48.658;2.328;2022-10-22T14:45:52;7.50;;;1.20;;
70549;SDS011;58101;48.658;2.328;2022-10-22T14:48:18;6.53;;;1.38;;
70549;SDS011;58101;48.658;2.328;2022-10-22T14:50:44;6.05;;;1.00;;
70549;SDS011;58101;48.658;2.328;2022-10-22T14:53:11;6.22;;;1.20;;
70549;SDS011;58101;48.658;2.328;2022-10-22T14:55:38;5.85;;;1.10;;
70549;SDS011;58101;48.658;2.328;2022-10-22T14:58:04;7.13;;;1.10;;
70549;SDS011;58101;48.658;2.328;2022-10-22T15:00:29;6.55;;;1.25;;
70549;SDS011;58101;48.658;2.328;2022-10-22T15:02:55;5.78;;;1.20;;
70549;SDS011;58101;48.658;2.328;2022-10-22T15:05:22;7.80;;;1.30;;
70549;SDS011;58101;48.658;2.328;2022-10-22T15:07:48;6.63;;;1.27;;
70549;SDS011;58101;48.658;2.328;2022-10-22T15:10:13;8.45;;;1.30;;
70549;SDS011;58101;48.658;2.328;2022-10-22T15:12:39;6.25;;;1.20;;
70549;SDS011;58101;48.658;2.328;2022-10-22T15:15:05;4.63;;;1.10;;
70549;SDS011;58101;48.658;2.328;2022-10-22T15:19:56;7.45;;;1.40;;
70549;SDS011;58101;48.658;2.328;2022-10-22T15:22:25;5.95;;;1.23;;
70549;SDS011;58101;48.658;2.328;2022-10-22T15:24:52;9.30;;;1.65;;
70549;SDS011;58101;48.658;2.328;2022-10-22T15:27:18;6.05;;;1.30;;
70549;SDS011;58101;48.658;2.328;2022-10-22T15:29:43;6.43;;;1.20;;
70549;SDS011;58101;48.658;2.328;2022-10-22T15:32:09;8.60;;;1.90;;
70549;SDS011;58101;48.658;2.328;2022-10-22T15:34:35;7.25;;;1.58;;
70549;SDS011;58101;48.658;2.328;2022-10-22T15:37:03;6.80;;;1.50;;
70549;SDS011;58101;48.658;2.328;2022-10-22T15:39:30;6.05;;;1.48;;
70549;SDS011;58101;48.658;2.328;2022-10-22T15:44:25;5.53;;;1.15;;
70549;SDS011;58101;48.658;2.328;2022-10-22T15:46:52;7.28;;;1.60;;
70549;SDS011;58101;48.658;2.328;2022-10-22T15:49:21;8.63;;;1.90;;
70549;SDS011;58101;48.658;2.328;2022-10-22T15:51:48;6.30;;;1.70;;
70549;SDS011;58101;48.658;2.328;2022-10-22T15:54:15;8.68;;;1.88;;
70549;SDS011;58101;48.658;2.328;2022-10-22T15:56:43;8.18;;;1.70;;
70549;SDS011;58101;48.658;2.328;2022-10-22T15:59:09;6.97;;;1.60;;
70549;SDS011;58101;48.658;2.328;2022-10-22T16:01:35;7.38;;;1.40;;
70549;SDS011;58101;48.658;2.328;2022-10-22T16:04:01;7.55;;;1.40;;
70549;SDS011;58101;48.658;2.328;2022-10-22T16:06:28;8.45;;;1.52;;
70549;SDS011;58101;48.658;2.328;2022-10-22T16:09:00;8.30;;;2.10;;
70549;SDS011;58101;48.658;2.328;2022-10-22T16:11:29;7.32;;;1.90;;
70549;SDS011;58101;48.658;2.328;2022-10-22T16:13:55;8.45;;;2.33;;
70549;SDS011;58101;48.658;2.328;2022-10-22T16:16:23;7.20;;;2.03;;
70549;SDS011;58101;48.658;2.328;2022-10-22T16:18:49;7.78;;;1.98;;
70549;SDS011;58101;48.658;2.328;2022-10-22T16:21:16;8.40;;;1.95;;
70549;SDS011;58101;48.658;2.328;2022-10-22T16:23:42;7.93;;;2.15;;
70549;SDS011;58101;48.658;2.328;2022-10-22T16:26:08;7.97;;;2.35;;
70549;SDS011;58101;48.658;2.328;2022-10-22T16:28:34;6.53;;;2.10;;
70549;SDS011;58101;48.658;2.328;2022-10-22T16:31:00;8.05;;;1.90;;
70549;SDS011;58101;48.658;2.328;2022-10-22T16:33:27;9.00;;;1.83;;
70549;SDS011;58101;48.658;2.328;2022-10-22T16:35:53;5.97;;;1.55;;
70549;SDS011;58101;48.658;2.328;2022-10-22T16:38:18;6.57;;;1.63;;
70549;SDS011;58101;48.658;2.328;2022-10-22T16:40:44;8.07;;;2.38;;
70549;SDS011;58101;48.658;2.328;2022-10-22T16:43:10;8.90;;;2.15;;
70549;SDS011;58101;48.658;2.328;2022-10-22T16:45:38;9.05;;;1.42;;
70549;SDS011;58101;48.658;2.328;2022-10-22T16:48:11;12.88;;;1.70;;
70549;SDS011;58101;48.658;2.328;2022-10-22T16:50:37;7.65;;;1.50;;
70549;SDS011;58101;48.658;2.328;2022-10-22T16:53:03;7.85;;;1.60;;
70549;SDS011;58101;48.658;2.328;2022-10-22T16:55:29;6.68;;;1.60;;
70549;SDS011;58101;48.658;2.328;2022-10-22T16:57:54;6.95;;;1.65;;
70549;SDS011;58101;48.658;2.328;2022-10-22T17:00:20;6.97;;;1.80;;
70549;SDS011;58101;48.658;2.328;2022-10-22T17:02:49;8.57;;;1.95;;